Terminal Aerodrome Forecast
Issued by NWS

Home | Current Version | Previous Version | Text Only | Print | Product List | Glossary On
Versions: 1 2 3 4 5 6 7 8 9 10 11 12 13
000
FTUS44 KSJT 281815 RRA
TAFBBD
TAF
KBBD 281815Z 2818/2918 14015KT P6SM SKC
     FM290100 13013KT P6SM OVC050
     FM290400 14011G17KT P6SM OVC015
     FM291000 16009G15KT P6SM OVC007
     FM291100 15006KT 6SM BR OVC007
     FM291500 17007KT P6SM OVC015
     FM291700 20007KT P6SM OVC050
      AMD NOT SKED=

USA.gov is the U.S. government's official web portal to all federal, state and local government web resources and services.